sensor_id;sensor_type;location;lat;lon;timestamp;P1;durP1;ratioP1;P2;durP2;ratioP2
73650;SDS011;61944;52.538;6.108;2024-01-07T00:00:06;18.77;;;11.27;;
73650;SDS011;61944;52.538;6.108;2024-01-07T00:02:32;23.70;;;13.80;;
73650;SDS011;61944;52.538;6.108;2024-01-07T00:04:57;20.77;;;12.52;;
73650;SDS011;61944;52.538;6.108;2024-01-07T00:07:23;21.17;;;11.82;;
73650;SDS011;61944;52.538;6.108;2024-01-07T00:09:48;25.42;;;13.82;;
73650;SDS011;61944;52.538;6.108;2024-01-07T00:12:14;21.98;;;12.25;;
73650;SDS011;61944;52.538;6.108;2024-01-07T00:14:39;27.20;;;13.95;;
73650;SDS011;61944;52.538;6.108;2024-01-07T00:17:05;22.85;;;11.90;;
73650;SDS011;61944;52.538;6.108;2024-01-07T00:19:31;21.95;;;13.32;;
73650;SDS011;61944;52.538;6.108;2024-01-07T00:21:57;19.85;;;12.43;;
73650;SDS011;61944;52.538;6.108;2024-01-07T00:24:22;21.73;;;12.30;;
73650;SDS011;61944;52.538;6.108;2024-01-07T00:26:50;17.20;;;11.07;;
73650;SDS011;61944;52.538;6.108;2024-01-07T00:29:16;16.08;;;10.40;;
73650;SDS011;61944;52.538;6.108;2024-01-07T00:31:41;19.25;;;11.63;;
73650;SDS011;61944;52.538;6.108;2024-01-07T00:34:06;18.45;;;12.05;;
73650;SDS011;61944;52.538;6.108;2024-01-07T00:36:32;17.05;;;10.23;;
73650;SDS011;61944;52.538;6.108;2024-01-07T00:38:57;18.15;;;10.77;;
73650;SDS011;61944;52.538;6.108;2024-01-07T00:41:22;17.73;;;10.77;;
73650;SDS011;61944;52.538;6.108;2024-01-07T00:43:49;17.50;;;10.50;;
73650;SDS011;61944;52.538;6.108;2024-01-07T00:46:14;19.00;;;10.38;;
73650;SDS011;61944;52.538;6.108;2024-01-07T00:48:40;18.02;;;10.50;;
73650;SDS011;61944;52.538;6.108;2024-01-07T00:51:05;18.20;;;10.55;;
73650;SDS011;61944;52.538;6.108;2024-01-07T00:53:30;20.00;;;12.50;;
73650;SDS011;61944;52.538;6.108;2024-01-07T00:55:56;19.95;;;11.10;;
73650;SDS011;61944;52.538;6.108;2024-01-07T00:58:22;16.98;;;9.98;;
73650;SDS011;61944;52.538;6.108;2024-01-07T01:00:47;19.35;;;10.93;;
73650;SDS011;61944;52.538;6.108;2024-01-07T01:03:13;18.63;;;11.20;;
73650;SDS011;61944;52.538;6.108;2024-01-07T01:05:38;16.15;;;11.23;;
73650;SDS011;61944;52.538;6.108;2024-01-07T01:08:03;16.13;;;10.50;;
73650;SDS011;61944;52.538;6.108;2024-01-07T01:10:29;17.67;;;11.95;;
73650;SDS011;61944;52.538;6.108;2024-01-07T01:12:54;20.25;;;11.05;;
73650;SDS011;61944;52.538;6.108;2024-01-07T01:15:20;21.60;;;12.38;;
73650;SDS011;61944;52.538;6.108;2024-01-07T01:17:45;17.33;;;9.82;;
73650;SDS011;61944;52.538;6.108;2024-01-07T01:20:11;16.10;;;10.85;;
73650;SDS011;61944;52.538;6.108;2024-01-07T01:22:36;27.95;;;13.32;;
73650;SDS011;61944;52.538;6.108;2024-01-07T01:25:01;22.30;;;12.13;;
73650;SDS011;61944;52.538;6.108;2024-01-07T01:27:28;22.75;;;13.02;;
73650;SDS011;61944;52.538;6.108;2024-01-07T01:29:53;23.55;;;13.02;;
73650;SDS011;61944;52.538;6.108;2024-01-07T01:32:19;18.10;;;12.35;;
73650;SDS011;61944;52.538;6.108;2024-01-07T01:34:44;16.77;;;10.55;;
73650;SDS011;61944;52.538;6.108;2024-01-07T01:37:09;21.65;;;11.82;;
73650;SDS011;61944;52.538;6.108;2024-01-07T01:39:35;22.10;;;11.10;;
73650;SDS011;61944;52.538;6.108;2024-01-07T01:42:00;19.45;;;12.45;;
73650;SDS011;61944;52.538;6.108;2024-01-07T01:44:26;19.15;;;11.98;;
73650;SDS011;61944;52.538;6.108;2024-01-07T01:46:53;25.70;;;13.15;;
73650;SDS011;61944;52.538;6.108;2024-01-07T01:49:19;22.30;;;13.25;;
73650;SDS011;61944;52.538;6.108;2024-01-07T01:51:44;22.55;;;14.68;;
73650;SDS011;61944;52.538;6.108;2024-01-07T01:54:10;22.33;;;12.60;;
73650;SDS011;61944;52.538;6.108;2024-01-07T01:56:36;21.92;;;12.00;;
73650;SDS011;61944;52.538;6.108;2024-01-07T01:59:01;18.92;;;11.25;;
73650;SDS011;61944;52.538;6.108;2024-01-07T02:01:30;19.90;;;11.80;;
73650;SDS011;61944;52.538;6.108;2024-01-07T02:03:56;23.60;;;11.48;;
73650;SDS011;61944;52.538;6.108;2024-01-07T02:06:22;20.50;;;11.27;;
73650;SDS011;61944;52.538;6.108;2024-01-07T02:08:48;18.58;;;11.65;;
73650;SDS011;61944;52.538;6.108;2024-01-07T02:11:18;21.80;;;11.98;;
73650;SDS011;61944;52.538;6.108;2024-01-07T02:13:44;17.80;;;11.27;;
73650;SDS011;61944;52.538;6.108;2024-01-07T02:16:10;18.55;;;11.20;;
73650;SDS011;61944;52.538;6.108;2024-01-07T02:18:36;19.05;;;10.75;;
73650;SDS011;61944;52.538;6.108;2024-01-07T02:21:02;21.05;;;10.57;;
73650;SDS011;61944;52.538;6.108;2024-01-07T02:23:28;16.50;;;10.13;;
73650;SDS011;61944;52.538;6.108;2024-01-07T02:25:53;16.58;;;10.65;;
73650;SDS011;61944;52.538;6.108;2024-01-07T02:28:18;15.10;;;9.80;;
73650;SDS011;61944;52.538;6.108;2024-01-07T02:30:44;18.92;;;10.93;;
73650;SDS011;61944;52.538;6.108;2024-01-07T02:33:09;21.60;;;11.52;;
73650;SDS011;61944;52.538;6.108;2024-01-07T02:35:34;15.13;;;10.07;;
73650;SDS011;61944;52.538;6.108;2024-01-07T02:38:00;16.45;;;9.45;;
73650;SDS011;61944;52.538;6.108;2024-01-07T02:40:25;19.08;;;10.27;;
73650;SDS011;61944;52.538;6.108;2024-01-07T02:42:51;14.15;;;9.40;;
73650;SDS011;61944;52.538;6.108;2024-01-07T02:45:16;19.92;;;11.00;;
73650;SDS011;61944;52.538;6.108;2024-01-07T02:47:41;16.55;;;9.73;;
73650;SDS011;61944;52.538;6.108;2024-01-07T02:50:07;15.10;;;8.93;;
73650;SDS011;61944;52.538;6.108;2024-01-07T02:52:32;13.45;;;8.15;;
73650;SDS011;61944;52.538;6.108;2024-01-07T02:54:58;20.92;;;9.98;;
73650;SDS011;61944;52.538;6.108;2024-01-07T02:57:24;17.35;;;9.90;;
73650;SDS011;61944;52.538;6.108;2024-01-07T02:59:49;15.38;;;9.52;;
73650;SDS011;61944;52.538;6.108;2024-01-07T03:02:14;15.73;;;8.95;;
73650;SDS011;61944;52.538;6.108;2024-01-07T03:04:40;16.35;;;9.77;;
73650;SDS011;61944;52.538;6.108;2024-01-07T03:07:05;17.27;;;9.68;;
73650;SDS011;61944;52.538;6.108;2024-01-07T03:09:30;19.98;;;10.43;;
73650;SDS011;61944;52.538;6.108;2024-01-07T03:11:56;16.08;;;10.77;;
73650;SDS011;61944;52.538;6.108;2024-01-07T03:14:21;12.93;;;9.30;;
73650;SDS011;61944;52.538;6.108;2024-01-07T03:16:48;15.45;;;9.68;;
73650;SDS011;61944;52.538;6.108;2024-01-07T03:19:13;14.05;;;9.27;;
73650;SDS011;61944;52.538;6.108;2024-01-07T03:21:39;15.98;;;9.73;;
73650;SDS011;61944;52.538;6.108;2024-01-07T03:24:04;14.15;;;9.77;;
73650;SDS011;61944;52.538;6.108;2024-01-07T03:26:30;16.25;;;11.13;;
73650;SDS011;61944;52.538;6.108;2024-01-07T03:28:59;18.80;;;9.68;;
73650;SDS011;61944;52.538;6.108;2024-01-07T03:31:25;14.35;;;10.60;;
73650;SDS011;61944;52.538;6.108;2024-01-07T03:33:50;16.13;;;10.05;;
73650;SDS011;61944;52.538;6.108;2024-01-07T03:36:15;16.95;;;9.68;;
73650;SDS011;61944;52.538;6.108;2024-01-07T03:38:41;13.85;;;9.57;;
73650;SDS011;61944;52.538;6.108;2024-01-07T03:41:06;18.95;;;10.20;;
73650;SDS011;61944;52.538;6.108;2024-01-07T03:43:32;18.50;;;10.95;;
73650;SDS011;61944;52.538;6.108;2024-01-07T03:45:58;17.63;;;10.50;;
73650;SDS011;61944;52.538;6.108;2024-01-07T03:48:23;15.45;;;9.90;;
73650;SDS011;61944;52.538;6.108;2024-01-07T03:50:49;18.33;;;11.43;;
73650;SDS011;61944;52.538;6.108;2024-01-07T03:53:15;15.75;;;9.80;;
73650;SDS011;61944;52.538;6.108;2024-01-07T03:55:42;17.98;;;11.07;;
73650;SDS011;61944;52.538;6.108;2024-01-07T03:58:07;15.70;;;9.00;;
73650;SDS011;61944;52.538;6.108;2024-01-07T04:00:33;14.70;;;10.02;;
73650;SDS011;61944;52.538;6.108;2024-01-07T04:02:59;22.85;;;10.00;;
73650;SDS011;61944;52.538;6.108;2024-01-07T04:05:24;20.88;;;10.50;;
73650;SDS011;61944;52.538;6.108;2024-01-07T04:07:50;15.68;;;10.38;;
73650;SDS011;61944;52.538;6.108;2024-01-07T04:10:18;14.45;;;10.07;;
73650;SDS011;61944;52.538;6.108;2024-01-07T04:12:44;17.92;;;10.10;;
73650;SDS011;61944;52.538;6.108;2024-01-07T04:15:10;13.50;;;9.52;;
73650;SDS011;61944;52.538;6.108;2024-01-07T04:17:36;12.50;;;7.97;;
73650;SDS011;61944;52.538;6.108;2024-01-07T04:20:02;15.27;;;8.38;;
73650;SDS011;61944;52.538;6.108;2024-01-07T04:22:27;15.23;;;9.35;;
73650;SDS011;61944;52.538;6.108;2024-01-07T04:24:53;15.48;;;9.18;;
73650;SDS011;61944;52.538;6.108;2024-01-07T04:27:18;13.18;;;8.55;;
73650;SDS011;61944;52.538;6.108;2024-01-07T04:29:43;15.48;;;9.25;;
73650;SDS011;61944;52.538;6.108;2024-01-07T04:32:09;12.45;;;8.80;;
73650;SDS011;61944;52.538;6.108;2024-01-07T04:34:34;16.33;;;9.13;;
73650;SDS011;61944;52.538;6.108;2024-01-07T04:36:59;11.90;;;8.00;;
73650;SDS011;61944;52.538;6.108;2024-01-07T04:39:25;13.98;;;8.43;;
73650;SDS011;61944;52.538;6.108;2024-01-07T04:41:50;12.93;;;7.70;;
73650;SDS011;61944;52.538;6.108;2024-01-07T04:44:16;12.60;;;8.93;;
73650;SDS011;61944;52.538;6.108;2024-01-07T04:46:41;13.57;;;8.68;;
73650;SDS011;61944;52.538;6.108;2024-01-07T04:49:07;14.70;;;9.43;;
73650;SDS011;61944;52.538;6.108;2024-01-07T04:51:32;14.27;;;9.10;;
73650;SDS011;61944;52.538;6.108;2024-01-07T04:53:58;12.02;;;8.13;;
73650;SDS011;61944;52.538;6.108;2024-01-07T04:56:24;12.75;;;8.25;;
73650;SDS011;61944;52.538;6.108;2024-01-07T04:58:49;11.23;;;8.05;;
73650;SDS011;61944;52.538;6.108;2024-01-07T05:01:14;15.13;;;9.60;;
73650;SDS011;61944;52.538;6.108;2024-01-07T05:03:40;13.18;;;8.77;;
73650;SDS011;61944;52.538;6.108;2024-01-07T05:06:07;14.55;;;8.70;;
73650;SDS011;61944;52.538;6.108;2024-01-07T05:08:34;15.98;;;9.43;;
73650;SDS011;61944;52.538;6.108;2024-01-07T05:10:59;15.18;;;9.15;;
73650;SDS011;61944;52.538;6.108;2024-01-07T05:13:24;14.07;;;9.57;;
73650;SDS011;61944;52.538;6.108;2024-01-07T05:15:50;15.15;;;8.52;;
73650;SDS011;61944;52.538;6.108;2024-01-07T05:18:24;16.98;;;9.52;;
73650;SDS011;61944;52.538;6.108;2024-01-07T05:20:50;15.17;;;8.77;;
73650;SDS011;61944;52.538;6.108;2024-01-07T05:23:16;18.55;;;9.07;;
73650;SDS011;61944;52.538;6.108;2024-01-07T05:25:42;13.15;;;8.95;;
73650;SDS011;61944;52.538;6.108;2024-01-07T05:28:08;11.57;;;7.57;;
73650;SDS011;61944;52.538;6.108;2024-01-07T05:30:34;15.90;;;8.43;;
73650;SDS011;61944;52.538;6.108;2024-01-07T05:32:59;14.60;;;8.10;;
73650;SDS011;61944;52.538;6.108;2024-01-07T05:35:25;14.82;;;8.85;;
73650;SDS011;61944;52.538;6.108;2024-01-07T05:37:50;14.10;;;8.50;;
73650;SDS011;61944;52.538;6.108;2024-01-07T05:40:15;14.43;;;8.73;;
73650;SDS011;61944;52.538;6.108;2024-01-07T05:42:41;12.48;;;8.73;;
73650;SDS011;61944;52.538;6.108;2024-01-07T05:45:06;12.93;;;9.25;;
73650;SDS011;61944;52.538;6.108;2024-01-07T05:47:32;11.27;;;8.77;;
73650;SDS011;61944;52.538;6.108;2024-01-07T05:49:57;14.20;;;8.90;;
73650;SDS011;61944;52.538;6.108;2024-01-07T05:52:22;13.07;;;7.25;;
73650;SDS011;61944;52.538;6.108;2024-01-07T05:54:48;14.68;;;8.93;;
73650;SDS011;61944;52.538;6.108;2024-01-07T05:57:13;13.07;;;9.38;;
73650;SDS011;61944;52.538;6.108;2024-01-07T05:59:39;14.25;;;8.65;;
73650;SDS011;61944;52.538;6.108;2024-01-07T06:02:04;13.85;;;8.23;;
73650;SDS011;61944;52.538;6.108;2024-01-07T06:04:29;15.73;;;9.85;;
73650;SDS011;61944;52.538;6.108;2024-01-07T06:06:55;13.82;;;8.75;;
73650;SDS011;61944;52.538;6.108;2024-01-07T06:09:20;15.13;;;8.65;;
73650;SDS011;61944;52.538;6.108;2024-01-07T06:11:46;14.65;;;9.73;;
73650;SDS011;61944;52.538;6.108;2024-01-07T06:14:11;13.32;;;9.00;;
73650;SDS011;61944;52.538;6.108;2024-01-07T06:16:37;11.98;;;8.05;;
73650;SDS011;61944;52.538;6.108;2024-01-07T06:19:02;16.27;;;9.00;;
73650;SDS011;61944;52.538;6.108;2024-01-07T06:21:28;10.00;;;8.13;;
73650;SDS011;61944;52.538;6.108;2024-01-07T06:23:54;12.95;;;8.68;;
73650;SDS011;61944;52.538;6.108;2024-01-07T06:26:19;12.60;;;8.90;;
73650;SDS011;61944;52.538;6.108;2024-01-07T06:28:44;12.30;;;8.25;;
73650;SDS011;61944;52.538;6.108;2024-01-07T06:31:10;14.27;;;8.63;;
73650;SDS011;61944;52.538;6.108;2024-01-07T06:33:35;12.18;;;7.85;;
73650;SDS011;61944;52.538;6.108;2024-01-07T06:36:00;13.00;;;7.22;;
73650;SDS011;61944;52.538;6.108;2024-01-07T06:38:26;11.77;;;6.80;;
73650;SDS011;61944;52.538;6.108;2024-01-07T06:40:51;8.07;;;6.40;;
73650;SDS011;61944;52.538;6.108;2024-01-07T06:43:19;11.77;;;6.97;;
73650;SDS011;61944;52.538;6.108;2024-01-07T06:45:44;12.90;;;8.15;;
73650;SDS011;61944;52.538;6.108;2024-01-07T06:48:09;8.18;;;6.20;;
73650;SDS011;61944;52.538;6.108;2024-01-07T06:50:35;13.68;;;6.70;;
73650;SDS011;61944;52.538;6.108;2024-01-07T06:53:00;14.45;;;7.70;;
73650;SDS011;61944;52.538;6.108;2024-01-07T06:55:26;10.63;;;6.78;;
73650;SDS011;61944;52.538;6.108;2024-01-07T06:57:51;10.55;;;7.10;;
73650;SDS011;61944;52.538;6.108;2024-01-07T07:00:16;11.68;;;6.75;;
73650;SDS011;61944;52.538;6.108;2024-01-07T07:02:42;9.95;;;6.95;;
73650;SDS011;61944;52.538;6.108;2024-01-07T07:05:08;10.05;;;6.50;;
73650;SDS011;61944;52.538;6.108;2024-01-07T07:07:34;10.75;;;7.28;;
73650;SDS011;61944;52.538;6.108;2024-01-07T07:09:59;9.32;;;5.88;;
73650;SDS011;61944;52.538;6.108;2024-01-07T07:12:24;13.05;;;7.13;;
73650;SDS011;61944;52.538;6.108;2024-01-07T07:14:50;7.63;;;5.97;;
73650;SDS011;61944;52.538;6.108;2024-01-07T07:17:15;11.27;;;6.03;;
73650;SDS011;61944;52.538;6.108;2024-01-07T07:19:41;10.48;;;5.10;;
73650;SDS011;61944;52.538;6.108;2024-01-07T07:22:07;7.70;;;5.80;;
73650;SDS011;61944;52.538;6.108;2024-01-07T07:24:32;7.70;;;5.18;;
73650;SDS011;61944;52.538;6.108;2024-01-07T07:26:58;9.60;;;5.53;;
73650;SDS011;61944;52.538;6.108;2024-01-07T07:29:23;8.13;;;4.75;;
73650;SDS011;61944;52.538;6.108;2024-01-07T07:31:48;7.90;;;5.13;;
73650;SDS011;61944;52.538;6.108;2024-01-07T07:34:14;8.00;;;4.40;;
73650;SDS011;61944;52.538;6.108;2024-01-07T07:36:39;5.28;;;4.70;;
73650;SDS011;61944;52.538;6.108;2024-01-07T07:39:06;9.32;;;4.85;;
73650;SDS011;61944;52.538;6.108;2024-01-07T07:41:32;5.78;;;3.55;;
73650;SDS011;61944;52.538;6.108;2024-01-07T07:43:57;6.25;;;3.80;;
73650;SDS011;61944;52.538;6.108;2024-01-07T07:46:23;6.80;;;3.90;;
73650;SDS011;61944;52.538;6.108;2024-01-07T07:48:48;5.90;;;3.30;;
73650;SDS011;61944;52.538;6.108;2024-01-07T07:51:14;6.72;;;3.53;;
73650;SDS011;61944;52.538;6.108;2024-01-07T07:53:39;4.78;;;3.50;;
73650;SDS011;61944;52.538;6.108;2024-01-07T07:56:05;8.55;;;3.60;;
73650;SDS011;61944;52.538;6.108;2024-01-07T07:58:31;6.40;;;4.05;;
73650;SDS011;61944;52.538;6.108;2024-01-07T08:00:56;4.05;;;3.38;;
73650;SDS011;61944;52.538;6.108;2024-01-07T08:03:22;4.65;;;2.70;;
73650;SDS011;61944;52.538;6.108;2024-01-07T08:05:48;6.88;;;3.47;;
73650;SDS011;61944;52.538;6.108;2024-01-07T08:08:20;4.85;;;3.63;;
73650;SDS011;61944;52.538;6.108;2024-01-07T08:10:46;4.32;;;3.13;;
73650;SDS011;61944;52.538;6.108;2024-01-07T08:13:11;7.00;;;2.90;;
73650;SDS011;61944;52.538;6.108;2024-01-07T08:18:11;7.05;;;2.90;;
73650;SDS011;61944;52.538;6.108;2024-01-07T08:20:37;5.93;;;3.00;;
73650;SDS011;61944;52.538;6.108;2024-01-07T08:23:02;3.50;;;2.55;;
73650;SDS011;61944;52.538;6.108;2024-01-07T08:25:28;7.55;;;3.42;;
73650;SDS011;61944;52.538;6.108;2024-01-07T08:27:53;3.92;;;2.88;;
73650;SDS011;61944;52.538;6.108;2024-01-07T08:30:18;3.35;;;2.55;;
73650;SDS011;61944;52.538;6.108;2024-01-07T08:32:44;6.93;;;3.22;;
73650;SDS011;61944;52.538;6.108;2024-01-07T08:35:09;5.95;;;3.35;;
73650;SDS011;61944;52.538;6.108;2024-01-07T08:37:34;5.30;;;3.63;;
73650;SDS011;61944;52.538;6.108;2024-01-07T08:40:00;4.88;;;2.97;;
73650;SDS011;61944;52.538;6.108;2024-01-07T08:42:26;4.05;;;3.22;;
73650;SDS011;61944;52.538;6.108;2024-01-07T08:44:55;3.55;;;3.25;;
73650;SDS011;61944;52.538;6.108;2024-01-07T08:47:20;6.18;;;2.78;;
73650;SDS011;61944;52.538;6.108;2024-01-07T08:49:45;5.10;;;3.05;;
73650;SDS011;61944;52.538;6.108;2024-01-07T08:52:10;4.30;;;2.40;;
73650;SDS011;61944;52.538;6.108;2024-01-07T08:54:36;5.03;;;2.92;;
73650;SDS011;61944;52.538;6.108;2024-01-07T08:57:01;4.22;;;2.58;;
73650;SDS011;61944;52.538;6.108;2024-01-07T08:59:27;6.38;;;3.60;;
73650;SDS011;61944;52.538;6.108;2024-01-07T09:01:52;5.82;;;2.83;;
73650;SDS011;61944;52.538;6.108;2024-01-07T09:04:18;6.60;;;3.20;;
73650;SDS011;61944;52.538;6.108;2024-01-07T09:06:43;5.28;;;2.95;;
73650;SDS011;61944;52.538;6.108;2024-01-07T09:09:09;2.95;;;2.10;;
73650;SDS011;61944;52.538;6.108;2024-01-07T09:11:35;3.42;;;2.63;;
73650;SDS011;61944;52.538;6.108;2024-01-07T09:14:01;6.55;;;3.20;;
73650;SDS011;61944;52.538;6.108;2024-01-07T09:16:28;4.63;;;2.92;;
73650;SDS011;61944;52.538;6.108;2024-01-07T09:18:54;5.22;;;2.65;;
73650;SDS011;61944;52.538;6.108;2024-01-07T09:21:20;4.88;;;3.10;;
73650;SDS011;61944;52.538;6.108;2024-01-07T09:23:45;5.18;;;3.15;;
73650;SDS011;61944;52.538;6.108;2024-01-07T09:26:11;3.20;;;2.17;;
73650;SDS011;61944;52.538;6.108;2024-01-07T09:28:36;3.33;;;2.47;;
73650;SDS011;61944;52.538;6.108;2024-01-07T09:31:02;6.03;;;2.80;;
73650;SDS011;61944;52.538;6.108;2024-01-07T09:33:28;4.95;;;3.85;;
73650;SDS011;61944;52.538;6.108;2024-01-07T09:35:53;3.15;;;2.78;;
73650;SDS011;61944;52.538;6.108;2024-01-07T09:38:21;4.93;;;2.13;;
73650;SDS011;61944;52.538;6.108;2024-01-07T09:40:47;4.65;;;2.63;;
73650;SDS011;61944;52.538;6.108;2024-01-07T09:43:12;2.75;;;1.77;;
73650;SDS011;61944;52.538;6.108;2024-01-07T09:45:38;3.65;;;2.47;;
73650;SDS011;61944;52.538;6.108;2024-01-07T09:48:06;3.05;;;2.17;;
73650;SDS011;61944;52.538;6.108;2024-01-07T09:50:31;3.20;;;2.03;;
73650;SDS011;61944;52.538;6.108;2024-01-07T09:52:57;3.20;;;2.20;;
73650;SDS011;61944;52.538;6.108;2024-01-07T09:56:11;4.40;;;1.83;;
73650;SDS011;61944;52.538;6.108;2024-01-07T09:58:29;2.97;;;1.90;;
73650;SDS011;61944;52.538;6.108;2024-01-07T10:00:54;1.67;;;1.58;;
73650;SDS011;61944;52.538;6.108;2024-01-07T10:03:19;2.38;;;2.10;;
73650;SDS011;61944;52.538;6.108;2024-01-07T10:05:45;3.63;;;2.45;;
73650;SDS011;61944;52.538;6.108;2024-01-07T10:08:10;3.63;;;2.67;;
73650;SDS011;61944;52.538;6.108;2024-01-07T10:10:36;5.50;;;2.30;;
73650;SDS011;61944;52.538;6.108;2024-01-07T10:13:02;6.47;;;2.38;;
73650;SDS011;61944;52.538;6.108;2024-01-07T10:15:27;2.03;;;1.70;;
73650;SDS011;61944;52.538;6.108;2024-01-07T10:17:56;5.15;;;2.00;;
73650;SDS011;61944;52.538;6.108;2024-01-07T10:20:28;5.18;;;1.35;;
73650;SDS011;61944;52.538;6.108;2024-01-07T10:22:53;3.53;;;2.05;;
73650;SDS011;61944;52.538;6.108;2024-01-07T10:25:18;2.55;;;2.10;;
73650;SDS011;61944;52.538;6.108;2024-01-07T10:27:44;3.70;;;2.10;;
73650;SDS011;61944;52.538;6.108;2024-01-07T10:30:09;2.78;;;1.67;;
73650;SDS011;61944;52.538;6.108;2024-01-07T10:32:35;1.63;;;1.45;;
73650;SDS011;61944;52.538;6.108;2024-01-07T10:35:05;3.15;;;1.85;;
73650;SDS011;61944;52.538;6.108;2024-01-07T10:37:31;3.63;;;2.20;;
73650;SDS011;61944;52.538;6.108;2024-01-07T10:39:58;3.15;;;1.80;;
73650;SDS011;61944;52.538;6.108;2024-01-07T10:42:30;2.67;;;1.60;;
73650;SDS011;61944;52.538;6.108;2024-01-07T10:44:56;2.22;;;1.52;;
73650;SDS011;61944;52.538;6.108;2024-01-07T10:47:22;2.17;;;1.98;;
73650;SDS011;61944;52.538;6.108;2024-01-07T10:49:50;3.80;;;1.92;;
73650;SDS011;61944;52.538;6.108;2024-01-07T10:52:15;3.47;;;2.38;;
73650;SDS011;61944;52.538;6.108;2024-01-07T10:54:42;2.85;;;2.00;;
73650;SDS011;61944;52.538;6.108;2024-01-07T10:57:13;2.72;;;1.63;;
73650;SDS011;61944;52.538;6.108;2024-01-07T10:59:42;3.17;;;2.40;;
73650;SDS011;61944;52.538;6.108;2024-01-07T11:02:09;2.40;;;1.45;;
73650;SDS011;61944;52.538;6.108;2024-01-07T11:05:00;1.98;;;1.67;;
73650;SDS011;61944;52.538;6.108;2024-01-07T11:07:48;2.33;;;1.58;;
73650;SDS011;61944;52.538;6.108;2024-01-07T11:10:29;2.47;;;1.90;;
73650;SDS011;61944;52.538;6.108;2024-01-07T11:13:06;3.75;;;1.90;;
73650;SDS011;61944;52.538;6.108;2024-01-07T11:15:50;1.98;;;1.77;;
73650;SDS011;61944;52.538;6.108;2024-01-07T11:18:19;4.03;;;2.22;;
73650;SDS011;61944;52.538;6.108;2024-01-07T11:20:45;2.67;;;2.13;;
73650;SDS011;61944;52.538;6.108;2024-01-07T11:23:27;2.22;;;2.00;;
73650;SDS011;61944;52.538;6.108;2024-01-07T11:25:54;4.45;;;2.40;;
73650;SDS011;61944;52.538;6.108;2024-01-07T11:28:24;2.60;;;1.63;;
73650;SDS011;61944;52.538;6.108;2024-01-07T11:31:17;1.70;;;1.48;;
73650;SDS011;61944;52.538;6.108;2024-01-07T11:33:49;2.42;;;1.90;;
73650;SDS011;61944;52.538;6.108;2024-01-07T11:36:16;3.08;;;1.75;;
73650;SDS011;61944;52.538;6.108;2024-01-07T11:38:43;2.65;;;2.08;;
73650;SDS011;61944;52.538;6.108;2024-01-07T11:41:09;2.85;;;1.35;;
73650;SDS011;61944;52.538;6.108;2024-01-07T11:43:37;3.05;;;1.85;;
73650;SDS011;61944;52.538;6.108;2024-01-07T11:46:02;2.15;;;1.85;;
73650;SDS011;61944;52.538;6.108;2024-01-07T11:48:28;2.17;;;1.48;;
73650;SDS011;61944;52.538;6.108;2024-01-07T11:50:53;2.38;;;1.77;;
73650;SDS011;61944;52.538;6.108;2024-01-07T11:53:19;2.53;;;1.88;;
73650;SDS011;61944;52.538;6.108;2024-01-07T11:55:45;1.67;;;1.58;;
73650;SDS011;61944;52.538;6.108;2024-01-07T11:58:11;1.90;;;1.77;;
73650;SDS011;61944;52.538;6.108;2024-01-07T12:00:37;2.40;;;1.63;;
73650;SDS011;61944;52.538;6.108;2024-01-07T12:03:03;4.53;;;2.15;;
73650;SDS011;61944;52.538;6.108;2024-01-07T12:05:29;3.17;;;1.85;;
73650;SDS011;61944;52.538;6.108;2024-01-07T12:07:55;4.30;;;1.55;;
73650;SDS011;61944;52.538;6.108;2024-01-07T12:10:21;2.03;;;1.42;;
73650;SDS011;61944;52.538;6.108;2024-01-07T12:12:48;3.47;;;1.88;;
73650;SDS011;61944;52.538;6.108;2024-01-07T12:15:16;1.92;;;1.40;;
73650;SDS011;61944;52.538;6.108;2024-01-07T12:17:41;3.42;;;1.83;;
73650;SDS011;61944;52.538;6.108;2024-01-07T12:20:07;3.95;;;1.98;;
73650;SDS011;61944;52.538;6.108;2024-01-07T12:22:37;2.70;;;2.05;;
73650;SDS011;61944;52.538;6.108;2024-01-07T12:25:03;3.42;;;1.65;;
73650;SDS011;61944;52.538;6.108;2024-01-07T12:27:30;2.35;;;1.70;;
73650;SDS011;61944;52.538;6.108;2024-01-07T12:29:56;2.65;;;1.85;;
73650;SDS011;61944;52.538;6.108;2024-01-07T12:32:22;3.13;;;1.73;;
73650;SDS011;61944;52.538;6.108;2024-01-07T12:34:48;3.63;;;2.05;;
73650;SDS011;61944;52.538;6.108;2024-01-07T12:37:14;2.50;;;2.08;;
73650;SDS011;61944;52.538;6.108;2024-01-07T12:39:40;3.97;;;1.88;;
73650;SDS011;61944;52.538;6.108;2024-01-07T12:42:05;4.70;;;2.08;;
73650;SDS011;61944;52.538;6.108;2024-01-07T12:44:32;2.10;;;1.90;;
73650;SDS011;61944;52.538;6.108;2024-01-07T12:46:57;2.78;;;1.88;;
73650;SDS011;61944;52.538;6.108;2024-01-07T12:49:23;3.38;;;1.80;;
73650;SDS011;61944;52.538;6.108;2024-01-07T12:51:48;4.15;;;2.10;;
73650;SDS011;61944;52.538;6.108;2024-01-07T12:54:17;2.60;;;1.95;;
73650;SDS011;61944;52.538;6.108;2024-01-07T12:56:42;5.72;;;2.70;;
73650;SDS011;61944;52.538;6.108;2024-01-07T12:59:07;3.28;;;2.25;;
73650;SDS011;61944;52.538;6.108;2024-01-07T13:01:33;3.63;;;2.10;;
73650;SDS011;61944;52.538;6.108;2024-01-07T13:03:59;8.05;;;2.70;;
73650;SDS011;61944;52.538;6.108;2024-01-07T13:06:25;4.03;;;2.47;;
73650;SDS011;61944;52.538;6.108;2024-01-07T13:08:50;2.70;;;2.20;;
73650;SDS011;61944;52.538;6.108;2024-01-07T13:11:15;2.78;;;2.10;;
73650;SDS011;61944;52.538;6.108;2024-01-07T13:13:41;3.80;;;1.95;;
73650;SDS011;61944;52.538;6.108;2024-01-07T13:16:07;3.72;;;1.85;;
73650;SDS011;61944;52.538;6.108;2024-01-07T13:18:32;2.45;;;1.67;;
73650;SDS011;61944;52.538;6.108;2024-01-07T13:20:57;2.67;;;2.25;;
73650;SDS011;61944;52.538;6.108;2024-01-07T13:23:23;4.13;;;1.98;;
73650;SDS011;61944;52.538;6.108;2024-01-07T13:25:48;3.78;;;2.08;;
73650;SDS011;61944;52.538;6.108;2024-01-07T13:28:13;2.05;;;1.70;;
73650;SDS011;61944;52.538;6.108;2024-01-07T13:30:39;7.13;;;2.13;;
73650;SDS011;61944;52.538;6.108;2024-01-07T13:33:05;2.78;;;1.45;;
73650;SDS011;61944;52.538;6.108;2024-01-07T13:35:30;3.40;;;1.88;;
73650;SDS011;61944;52.538;6.108;2024-01-07T13:37:56;2.78;;;1.90;;
73650;SDS011;61944;52.538;6.108;2024-01-07T13:40:21;2.35;;;1.80;;
73650;SDS011;61944;52.538;6.108;2024-01-07T13:42:47;3.28;;;2.17;;
73650;SDS011;61944;52.538;6.108;2024-01-07T13:45:16;1.90;;;1.73;;
73650;SDS011;61944;52.538;6.108;2024-01-07T13:47:44;2.90;;;2.10;;
73650;SDS011;61944;52.538;6.108;2024-01-07T13:50:10;2.17;;;1.75;;
73650;SDS011;61944;52.538;6.108;2024-01-07T13:52:35;2.83;;;2.53;;
73650;SDS011;61944;52.538;6.108;2024-01-07T13:55:02;2.80;;;2.00;;
73650;SDS011;61944;52.538;6.108;2024-01-07T13:57:28;3.53;;;2.00;;
73650;SDS011;61944;52.538;6.108;2024-01-07T13:59:55;2.13;;;1.83;;
73650;SDS011;61944;52.538;6.108;2024-01-07T14:02:20;2.45;;;1.80;;
73650;SDS011;61944;52.538;6.108;2024-01-07T14:04:47;5.22;;;2.65;;
73650;SDS011;61944;52.538;6.108;2024-01-07T14:07:13;3.33;;;1.73;;
73650;SDS011;61944;52.538;6.108;2024-01-07T14:09:38;2.85;;;2.22;;
73650;SDS011;61944;52.538;6.108;2024-01-07T14:12:04;2.33;;;2.13;;
73650;SDS011;61944;52.538;6.108;2024-01-07T14:14:29;4.10;;;2.25;;
73650;SDS011;61944;52.538;6.108;2024-01-07T14:16:55;4.97;;;2.97;;
73650;SDS011;61944;52.538;6.108;2024-01-07T14:19:20;4.18;;;2.88;;
73650;SDS011;61944;52.538;6.108;2024-01-07T14:21:47;4.22;;;2.60;;
73650;SDS011;61944;52.538;6.108;2024-01-07T14:24:13;3.90;;;2.38;;
73650;SDS011;61944;52.538;6.108;2024-01-07T14:26:38;3.78;;;2.85;;
73650;SDS011;61944;52.538;6.108;2024-01-07T14:29:04;3.35;;;2.83;;
73650;SDS011;61944;52.538;6.108;2024-01-07T14:31:29;4.20;;;2.50;;
73650;SDS011;61944;52.538;6.108;2024-01-07T14:33:55;3.78;;;2.50;;